sensor_id;sensor_type;location;lat;lon;timestamp;temperature;humidity
47779;DHT22;33538;48.432;11.350;2023-11-22T00:02:17;7.80;99.90
47779;DHT22;33538;48.432;11.350;2023-11-22T00:04:44;7.80;99.90
47779;DHT22;33538;48.432;11.350;2023-11-22T00:07:11;7.80;99.90
47779;DHT22;33538;48.432;11.350;2023-11-22T00:09:38;7.80;99.90
47779;DHT22;33538;48.432;11.350;2023-11-22T00:12:05;7.80;99.90
47779;DHT22;33538;48.432;11.350;2023-11-22T00:14:32;7.80;99.90
47779;DHT22;33538;48.432;11.350;2023-11-22T00:17:01;7.80;99.90
47779;DHT22;33538;48.432;11.350;2023-11-22T00:19:27;7.80;99.90
47779;DHT22;33538;48.432;11.350;2023-11-22T00:21:54;7.80;99.90
47779;DHT22;33538;48.432;11.350;2023-11-22T00:24:21;7.80;99.90
47779;DHT22;33538;48.432;11.350;2023-11-22T00:26:48;7.80;99.90
47779;DHT22;33538;48.432;11.350;2023-11-22T00:29:15;7.70;99.90
47779;DHT22;33538;48.432;11.350;2023-11-22T00:31:41;7.70;99.90
47779;DHT22;33538;48.432;11.350;2023-11-22T00:34:10;7.70;99.90
47779;DHT22;33538;48.432;11.350;2023-11-22T00:36:36;7.80;99.90
47779;DHT22;33538;48.432;11.350;2023-11-22T00:39:03;7.70;99.90
47779;DHT22;33538;48.432;11.350;2023-11-22T00:41:30;7.70;99.90
47779;DHT22;33538;48.432;11.350;2023-11-22T00:43:57;7.70;99.90
47779;DHT22;33538;48.432;11.350;2023-11-22T00:46:24;7.70;99.90
47779;DHT22;33538;48.432;11.350;2023-11-22T00:48:51;7.80;99.90
47779;DHT22;33538;48.432;11.350;2023-11-22T00:51:19;7.80;99.90
47779;DHT22;33538;48.432;11.350;2023-11-22T00:53:46;7.80;99.90
47779;DHT22;33538;48.432;11.350;2023-11-22T00:56:13;7.80;99.90
47779;DHT22;33538;48.432;11.350;2023-11-22T00:58:40;7.70;99.90
47779;DHT22;33538;48.432;11.350;2023-11-22T01:01:07;7.70;99.90
47779;DHT22;33538;48.432;11.350;2023-11-22T01:03:34;7.70;99.90
47779;DHT22;33538;48.432;11.350;2023-11-22T01:06:01;7.60;99.90
47779;DHT22;33538;48.432;11.350;2023-11-22T01:08:29;7.60;99.90
47779;DHT22;33538;48.432;11.350;2023-11-22T01:10:56;7.60;99.90
47779;DHT22;33538;48.432;11.350;2023-11-22T01:13:23;7.50;99.90
47779;DHT22;33538;48.432;11.350;2023-11-22T01:15:50;7.50;99.90
47779;DHT22;33538;48.432;11.350;2023-11-22T01:18:17;7.40;99.90
47779;DHT22;33538;48.432;11.350;2023-11-22T01:20:43;7.50;99.90
47779;DHT22;33538;48.432;11.350;2023-11-22T01:23:10;7.50;99.90
47779;DHT22;33538;48.432;11.350;2023-11-22T01:25:38;7.50;99.90
47779;DHT22;33538;48.432;11.350;2023-11-22T01:28:05;7.50;99.90
47779;DHT22;33538;48.432;11.350;2023-11-22T01:30:32;7.40;99.90
47779;DHT22;33538;48.432;11.350;2023-11-22T01:32:59;7.40;99.90
47779;DHT22;33538;48.432;11.350;2023-11-22T01:35:26;7.30;99.90
47779;DHT22;33538;48.432;11.350;2023-11-22T01:37:53;7.20;99.90
47779;DHT22;33538;48.432;11.350;2023-11-22T01:40:19;7.20;99.90
47779;DHT22;33538;48.432;11.350;2023-11-22T01:42:47;7.20;99.90
47779;DHT22;33538;48.432;11.350;2023-11-22T01:45:14;7.30;99.90
47779;DHT22;33538;48.432;11.350;2023-11-22T01:47:41;7.20;99.90
47779;DHT22;33538;48.432;11.350;2023-11-22T01:50:09;7.20;99.90
47779;DHT22;33538;48.432;11.350;2023-11-22T01:52:36;7.10;99.90
47779;DHT22;33538;48.432;11.350;2023-11-22T01:55:04;7.10;99.90
47779;DHT22;33538;48.432;11.350;2023-11-22T01:57:31;7.10;99.90
47779;DHT22;33538;48.432;11.350;2023-11-22T02:00:03;7.10;99.90
47779;DHT22;33538;48.432;11.350;2023-11-22T02:02:30;7.10;99.90
47779;DHT22;33538;48.432;11.350;2023-11-22T02:04:57;7.10;99.90
47779;DHT22;33538;48.432;11.350;2023-11-22T02:07:24;7.10;99.90
47779;DHT22;33538;48.432;11.350;2023-11-22T02:09:53;7.10;99.90
47779;DHT22;33538;48.432;11.350;2023-11-22T02:12:20;7.10;99.90
47779;DHT22;33538;48.432;11.350;2023-11-22T02:14:47;7.10;99.90
47779;DHT22;33538;48.432;11.350;2023-11-22T02:17:16;7.10;99.90
47779;DHT22;33538;48.432;11.350;2023-11-22T02:19:43;7.10;99.90
47779;DHT22;33538;48.432;11.350;2023-11-22T02:22:10;7.00;99.90
47779;DHT22;33538;48.432;11.350;2023-11-22T02:24:38;7.00;99.90
47779;DHT22;33538;48.432;11.350;2023-11-22T02:27:04;7.00;99.90
47779;DHT22;33538;48.432;11.350;2023-11-22T02:29:31;7.00;99.90
47779;DHT22;33538;48.432;11.350;2023-11-22T02:31:58;7.00;99.90
47779;DHT22;33538;48.432;11.350;2023-11-22T02:34:25;7.00;99.90
47779;DHT22;33538;48.432;11.350;2023-11-22T02:36:52;7.00;99.90
47779;DHT22;33538;48.432;11.350;2023-11-22T02:39:35;7.00;99.90
47779;DHT22;33538;48.432;11.350;2023-11-22T02:42:05;7.00;99.90
47779;DHT22;33538;48.432;11.350;2023-11-22T02:44:32;6.90;99.90
47779;DHT22;33538;48.432;11.350;2023-11-22T02:46:59;6.90;99.90
47779;DHT22;33538;48.432;11.350;2023-11-22T02:49:26;6.90;99.90
47779;DHT22;33538;48.432;11.350;2023-11-22T02:51:52;6.90;99.90
47779;DHT22;33538;48.432;11.350;2023-11-22T02:54:19;6.70;99.90
47779;DHT22;33538;48.432;11.350;2023-11-22T02:56:46;6.70;99.90
47779;DHT22;33538;48.432;11.350;2023-11-22T02:59:14;6.80;99.90
47779;DHT22;33538;48.432;11.350;2023-11-22T03:01:41;6.90;99.90
47779;DHT22;33538;48.432;11.350;2023-11-22T03:04:08;6.90;99.90
47779;DHT22;33538;48.432;11.350;2023-11-22T03:06:35;6.90;99.90
47779;DHT22;33538;48.432;11.350;2023-11-22T03:09:01;6.80;99.90
47779;DHT22;33538;48.432;11.350;2023-11-22T03:11:28;6.70;99.90
47779;DHT22;33538;48.432;11.350;2023-11-22T03:13:55;6.80;99.90
47779;DHT22;33538;48.432;11.350;2023-11-22T03:16:23;6.80;99.90
47779;DHT22;33538;48.432;11.350;2023-11-22T03:18:50;6.70;99.90
47779;DHT22;33538;48.432;11.350;2023-11-22T03:21:17;6.70;99.90
47779;DHT22;33538;48.432;11.350;2023-11-22T03:23:44;6.70;99.90
47779;DHT22;33538;48.432;11.350;2023-11-22T03:26:10;6.70;99.90
47779;DHT22;33538;48.432;11.350;2023-11-22T03:28:37;6.70;99.90
47779;DHT22;33538;48.432;11.350;2023-11-22T03:31:04;6.70;99.90
47779;DHT22;33538;48.432;11.350;2023-11-22T03:33:32;6.70;99.90
47779;DHT22;33538;48.432;11.350;2023-11-22T03:35:59;6.70;99.80
47779;DHT22;33538;48.432;11.350;2023-11-22T03:38:26;6.70;99.00
47779;DHT22;33538;48.432;11.350;2023-11-22T03:40:53;6.60;99.50
47779;DHT22;33538;48.432;11.350;2023-11-22T03:43:20;6.60;99.90
47779;DHT22;33538;48.432;11.350;2023-11-22T03:45:46;6.60;99.80
47779;DHT22;33538;48.432;11.350;2023-11-22T03:48:13;6.60;99.60
47779;DHT22;33538;48.432;11.350;2023-11-22T03:50:42;6.60;99.90
47779;DHT22;33538;48.432;11.350;2023-11-22T03:53:09;6.50;99.70
47779;DHT22;33538;48.432;11.350;2023-11-22T03:55:35;6.50;99.90
47779;DHT22;33538;48.432;11.350;2023-11-22T03:58:02;6.50;99.80
47779;DHT22;33538;48.432;11.350;2023-11-22T04:00:29;6.50;99.60
47779;DHT22;33538;48.432;11.350;2023-11-22T04:02:56;6.50;99.90
47779;DHT22;33538;48.432;11.350;2023-11-22T04:05:23;6.60;99.60
47779;DHT22;33538;48.432;11.350;2023-11-22T04:07:51;6.60;99.50
47779;DHT22;33538;48.432;11.350;2023-11-22T04:10:18;6.50;99.30
47779;DHT22;33538;48.432;11.350;2023-11-22T04:12:44;6.40;99.80
47779;DHT22;33538;48.432;11.350;2023-11-22T04:15:11;6.50;99.90
47779;DHT22;33538;48.432;11.350;2023-11-22T04:17:39;6.40;99.90
47779;DHT22;33538;48.432;11.350;2023-11-22T04:20:07;6.50;99.90
47779;DHT22;33538;48.432;11.350;2023-11-22T04:22:34;6.50;99.40
47779;DHT22;33538;48.432;11.350;2023-11-22T04:25:03;6.40;99.80
47779;DHT22;33538;48.432;11.350;2023-11-22T04:27:30;6.40;99.90
47779;DHT22;33538;48.432;11.350;2023-11-22T04:29:57;6.40;99.90
47779;DHT22;33538;48.432;11.350;2023-11-22T04:32:23;6.40;99.20
47779;DHT22;33538;48.432;11.350;2023-11-22T04:34:50;6.40;99.10
47779;DHT22;33538;48.432;11.350;2023-11-22T04:37:17;6.40;99.10
47779;DHT22;33538;48.432;11.350;2023-11-22T04:39:44;6.50;98.90
47779;DHT22;33538;48.432;11.350;2023-11-22T04:42:12;6.50;98.40
47779;DHT22;33538;48.432;11.350;2023-11-22T04:44:39;6.50;98.10
47779;DHT22;33538;48.432;11.350;2023-11-22T04:47:06;6.40;98.40
47779;DHT22;33538;48.432;11.350;2023-11-22T04:49:33;6.40;97.70
47779;DHT22;33538;48.432;11.350;2023-11-22T04:51:59;6.40;97.90
47779;DHT22;33538;48.432;11.350;2023-11-22T04:54:26;6.40;98.00
47779;DHT22;33538;48.432;11.350;2023-11-22T04:56:53;6.40;97.80
47779;DHT22;33538;48.432;11.350;2023-11-22T04:59:21;6.30;98.00
47779;DHT22;33538;48.432;11.350;2023-11-22T05:01:48;6.30;97.70
47779;DHT22;33538;48.432;11.350;2023-11-22T05:04:15;6.30;97.50
47779;DHT22;33538;48.432;11.350;2023-11-22T05:06:42;6.20;98.10
47779;DHT22;33538;48.432;11.350;2023-11-22T05:09:09;6.20;98.40
47779;DHT22;33538;48.432;11.350;2023-11-22T05:11:35;6.30;98.40
47779;DHT22;33538;48.432;11.350;2023-11-22T05:14:02;6.30;98.40
47779;DHT22;33538;48.432;11.350;2023-11-22T05:16:30;6.30;97.40
47779;DHT22;33538;48.432;11.350;2023-11-22T05:18:57;6.30;97.30
47779;DHT22;33538;48.432;11.350;2023-11-22T05:21:24;6.20;97.20
47779;DHT22;33538;48.432;11.350;2023-11-22T05:23:51;6.20;98.00
47779;DHT22;33538;48.432;11.350;2023-11-22T05:26:18;6.20;97.90
47779;DHT22;33538;48.432;11.350;2023-11-22T05:28:44;6.30;97.60
47779;DHT22;33538;48.432;11.350;2023-11-22T05:31:11;6.30;97.50
47779;DHT22;33538;48.432;11.350;2023-11-22T05:33:39;6.20;97.30
47779;DHT22;33538;48.432;11.350;2023-11-22T05:36:07;6.20;97.40
47779;DHT22;33538;48.432;11.350;2023-11-22T05:38:34;6.20;97.80
47779;DHT22;33538;48.432;11.350;2023-11-22T05:41:01;6.20;97.70
47779;DHT22;33538;48.432;11.350;2023-11-22T05:43:28;6.20;98.00
47779;DHT22;33538;48.432;11.350;2023-11-22T05:45:55;6.10;97.90
47779;DHT22;33538;48.432;11.350;2023-11-22T05:48:22;6.10;98.30
47779;DHT22;33538;48.432;11.350;2023-11-22T05:50:50;6.10;98.40
47779;DHT22;33538;48.432;11.350;2023-11-22T05:53:17;6.10;98.40
47779;DHT22;33538;48.432;11.350;2023-11-22T05:55:44;6.10;98.80
47779;DHT22;33538;48.432;11.350;2023-11-22T05:58:10;6.10;98.40
47779;DHT22;33538;48.432;11.350;2023-11-22T06:00:37;6.20;98.30
47779;DHT22;33538;48.432;11.350;2023-11-22T06:03:04;6.10;97.80
47779;DHT22;33538;48.432;11.350;2023-11-22T06:05:31;6.10;98.70
47779;DHT22;33538;48.432;11.350;2023-11-22T06:07:59;6.10;98.30
47779;DHT22;33538;48.432;11.350;2023-11-22T06:10:26;6.10;98.30
47779;DHT22;33538;48.432;11.350;2023-11-22T06:12:53;6.00;98.40
47779;DHT22;33538;48.432;11.350;2023-11-22T06:15:20;5.90;98.60
47779;DHT22;33538;48.432;11.350;2023-11-22T06:17:46;6.00;99.00
47779;DHT22;33538;48.432;11.350;2023-11-22T06:20:14;6.00;98.70
47779;DHT22;33538;48.432;11.350;2023-11-22T06:22:41;6.00;98.30
47779;DHT22;33538;48.432;11.350;2023-11-22T06:25:09;5.90;98.80
47779;DHT22;33538;48.432;11.350;2023-11-22T06:27:36;5.90;98.40
47779;DHT22;33538;48.432;11.350;2023-11-22T06:30:04;5.90;98.90
47779;DHT22;33538;48.432;11.350;2023-11-22T06:32:31;5.80;99.10
47779;DHT22;33538;48.432;11.350;2023-11-22T06:34:58;5.90;99.10
47779;DHT22;33538;48.432;11.350;2023-11-22T06:37:25;5.80;98.70
47779;DHT22;33538;48.432;11.350;2023-11-22T06:39:52;5.90;98.70
47779;DHT22;33538;48.432;11.350;2023-11-22T06:42:20;5.90;98.60
47779;DHT22;33538;48.432;11.350;2023-11-22T06:44:47;5.80;98.60
47779;DHT22;33538;48.432;11.350;2023-11-22T06:47:14;5.70;98.60
47779;DHT22;33538;48.432;11.350;2023-11-22T06:49:41;5.80;99.50
47779;DHT22;33538;48.432;11.350;2023-11-22T06:52:08;5.90;98.70
47779;DHT22;33538;48.432;11.350;2023-11-22T06:54:34;5.90;98.20
47779;DHT22;33538;48.432;11.350;2023-11-22T06:57:01;5.80;97.80
47779;DHT22;33538;48.432;11.350;2023-11-22T06:59:29;5.90;97.30
47779;DHT22;33538;48.432;11.350;2023-11-22T07:01:56;5.90;97.40
47779;DHT22;33538;48.432;11.350;2023-11-22T07:04:23;5.90;96.90
47779;DHT22;33538;48.432;11.350;2023-11-22T07:06:50;5.90;96.80
47779;DHT22;33538;48.432;11.350;2023-11-22T07:09:17;5.90;96.00
47779;DHT22;33538;48.432;11.350;2023-11-22T07:11:44;5.90;95.50
47779;DHT22;33538;48.432;11.350;2023-11-22T07:14:11;5.80;95.20
47779;DHT22;33538;48.432;11.350;2023-11-22T07:16:39;5.80;96.20
47779;DHT22;33538;48.432;11.350;2023-11-22T07:19:06;5.80;95.70
47779;DHT22;33538;48.432;11.350;2023-11-22T07:21:33;5.80;95.70
47779;DHT22;33538;48.432;11.350;2023-11-22T07:23:59;5.80;95.60
47779;DHT22;33538;48.432;11.350;2023-11-22T07:26:26;5.80;95.50
47779;DHT22;33538;48.432;11.350;2023-11-22T07:28:53;5.80;95.40
47779;DHT22;33538;48.432;11.350;2023-11-22T07:31:20;5.70;95.50
47779;DHT22;33538;48.432;11.350;2023-11-22T07:33:48;5.70;95.50
47779;DHT22;33538;48.432;11.350;2023-11-22T07:36:15;5.70;95.40
47779;DHT22;33538;48.432;11.350;2023-11-22T07:38:42;5.70;95.30
47779;DHT22;33538;48.432;11.350;2023-11-22T07:41:09;5.70;95.70
47779;DHT22;33538;48.432;11.350;2023-11-22T07:43:35;5.70;95.30
47779;DHT22;33538;48.432;11.350;2023-11-22T07:46:05;5.80;95.10
47779;DHT22;33538;48.432;11.350;2023-11-22T07:48:32;5.70;94.70
47779;DHT22;33538;48.432;11.350;2023-11-22T07:51:00;5.80;94.20
47779;DHT22;33538;48.432;11.350;2023-11-22T07:53:27;5.70;94.00
47779;DHT22;33538;48.432;11.350;2023-11-22T07:55:53;5.60;94.20
47779;DHT22;33538;48.432;11.350;2023-11-22T07:58:20;5.70;94.50
47779;DHT22;33538;48.432;11.350;2023-11-22T08:00:47;5.70;94.90
47779;DHT22;33538;48.432;11.350;2023-11-22T08:03:14;5.60;95.50
47779;DHT22;33538;48.432;11.350;2023-11-22T08:05:41;5.70;95.50
47779;DHT22;33538;48.432;11.350;2023-11-22T08:08:09;5.70;95.80
47779;DHT22;33538;48.432;11.350;2023-11-22T08:10:36;5.70;96.00
47779;DHT22;33538;48.432;11.350;2023-11-22T08:13:03;5.60;95.90
47779;DHT22;33538;48.432;11.350;2023-11-22T08:15:30;5.60;96.40
47779;DHT22;33538;48.432;11.350;2023-11-22T08:17:57;5.60;96.10
47779;DHT22;33538;48.432;11.350;2023-11-22T08:20:24;5.60;96.40
47779;DHT22;33538;48.432;11.350;2023-11-22T08:22:51;5.60;95.90
47779;DHT22;33538;48.432;11.350;2023-11-22T08:25:19;5.60;95.80
47779;DHT22;33538;48.432;11.350;2023-11-22T08:27:46;5.60;95.30
47779;DHT22;33538;48.432;11.350;2023-11-22T08:30:13;5.60;95.10
47779;DHT22;33538;48.432;11.350;2023-11-22T08:32:41;5.60;95.30
47779;DHT22;33538;48.432;11.350;2023-11-22T08:35:09;5.60;95.70
47779;DHT22;33538;48.432;11.350;2023-11-22T08:37:38;5.70;95.10
47779;DHT22;33538;48.432;11.350;2023-11-22T08:40:07;5.70;94.60
47779;DHT22;33538;48.432;11.350;2023-11-22T08:42:35;5.70;94.90
47779;DHT22;33538;48.432;11.350;2023-11-22T08:45:02;5.70;94.60
47779;DHT22;33538;48.432;11.350;2023-11-22T08:47:29;5.70;94.80
47779;DHT22;33538;48.432;11.350;2023-11-22T08:49:56;5.60;94.80
47779;DHT22;33538;48.432;11.350;2023-11-22T08:52:23;5.70;94.00
47779;DHT22;33538;48.432;11.350;2023-11-22T08:54:50;5.60;94.50
47779;DHT22;33538;48.432;11.350;2023-11-22T08:57:17;5.60;94.70
47779;DHT22;33538;48.432;11.350;2023-11-22T08:59:45;5.50;94.90
47779;DHT22;33538;48.432;11.350;2023-11-22T09:02:12;5.50;94.70
47779;DHT22;33538;48.432;11.350;2023-11-22T09:04:39;5.50;94.80
47779;DHT22;33538;48.432;11.350;2023-11-22T09:07:06;5.50;95.10
47779;DHT22;33538;48.432;11.350;2023-11-22T09:09:33;5.50;94.70
47779;DHT22;33538;48.432;11.350;2023-11-22T09:12:00;5.50;94.70
47779;DHT22;33538;48.432;11.350;2023-11-22T09:14:26;5.50;94.70
47779;DHT22;33538;48.432;11.350;2023-11-22T09:16:55;5.50;95.00
47779;DHT22;33538;48.432;11.350;2023-11-22T09:19:22;5.60;95.00
47779;DHT22;33538;48.432;11.350;2023-11-22T09:21:49;5.60;94.20
47779;DHT22;33538;48.432;11.350;2023-11-22T09:24:16;5.60;94.20
47779;DHT22;33538;48.432;11.350;2023-11-22T09:26:43;5.60;94.20
47779;DHT22;33538;48.432;11.350;2023-11-22T09:29:10;5.60;94.70
47779;DHT22;33538;48.432;11.350;2023-11-22T09:31:37;5.60;94.70
47779;DHT22;33538;48.432;11.350;2023-11-22T09:34:05;5.60;94.80
47779;DHT22;33538;48.432;11.350;2023-11-22T09:36:31;5.60;94.90
47779;DHT22;33538;48.432;11.350;2023-11-22T09:38:58;5.60;94.70
47779;DHT22;33538;48.432;11.350;2023-11-22T09:41:25;5.60;94.70
47779;DHT22;33538;48.432;11.350;2023-11-22T09:43:52;5.60;94.70
47779;DHT22;33538;48.432;11.350;2023-11-22T09:46:19;5.60;94.90
47779;DHT22;33538;48.432;11.350;2023-11-22T09:48:48;5.60;94.60
47779;DHT22;33538;48.432;11.350;2023-11-22T09:51:21;5.50;94.60
47779;DHT22;33538;48.432;11.350;2023-11-22T09:53:53;5.60;94.30
47779;DHT22;33538;48.432;11.350;2023-11-22T09:56:21;5.50;93.90
47779;DHT22;33538;48.432;11.350;2023-11-22T09:58:52;5.50;94.00
47779;DHT22;33538;48.432;11.350;2023-11-22T10:01:19;5.50;94.20
47779;DHT22;33538;48.432;11.350;2023-11-22T10:03:47;5.60;94.10
47779;DHT22;33538;48.432;11.350;2023-11-22T10:06:16;5.60;94.20
47779;DHT22;33538;48.432;11.350;2023-11-22T10:08:44;5.60;94.40
47779;DHT22;33538;48.432;11.350;2023-11-22T10:11:11;5.60;94.50
47779;DHT22;33538;48.432;11.350;2023-11-22T10:13:38;5.60;94.60
47779;DHT22;33538;48.432;11.350;2023-11-22T10:16:10;5.60;94.90
47779;DHT22;33538;48.432;11.350;2023-11-22T10:18:40;5.60;94.90
47779;DHT22;33538;48.432;11.350;2023-11-22T10:21:18;5.50;95.30
47779;DHT22;33538;48.432;11.350;2023-11-22T10:23:46;5.50;95.40
47779;DHT22;33538;48.432;11.350;2023-11-22T10:26:12;5.60;95.20
47779;DHT22;33538;48.432;11.350;2023-11-22T10:28:39;5.50;95.20
47779;DHT22;33538;48.432;11.350;2023-11-22T10:31:07;5.50;95.50
47779;DHT22;33538;48.432;11.350;2023-11-22T10:33:34;5.60;95.30
47779;DHT22;33538;48.432;11.350;2023-11-22T10:36:06;5.60;95.10
47779;DHT22;33538;48.432;11.350;2023-11-22T10:38:34;5.50;94.90
47779;DHT22;33538;48.432;11.350;2023-11-22T10:41:03;5.60;95.10
47779;DHT22;33538;48.432;11.350;2023-11-22T10:43:31;5.50;95.50
47779;DHT22;33538;48.432;11.350;2023-11-22T10:45:58;5.50;95.90
47779;DHT22;33538;48.432;11.350;2023-11-22T10:48:25;5.60;95.50
47779;DHT22;33538;48.432;11.350;2023-11-22T10:50:53;5.60;95.40
47779;DHT22;33538;48.432;11.350;2023-11-22T10:53:21;5.60;95.50
47779;DHT22;33538;48.432;11.350;2023-11-22T10:55:53;5.60;95.40
47779;DHT22;33538;48.432;11.350;2023-11-22T10:58:22;5.60;94.90
47779;DHT22;33538;48.432;11.350;2023-11-22T11:00:50;5.60;94.90
47779;DHT22;33538;48.432;11.350;2023-11-22T11:03:18;5.60;94.70
47779;DHT22;33538;48.432;11.350;2023-11-22T11:05:50;5.60;94.90
47779;DHT22;33538;48.432;11.350;2023-11-22T11:08:17;5.70;94.60
47779;DHT22;33538;48.432;11.350;2023-11-22T11:10:45;5.70;94.70
47779;DHT22;33538;48.432;11.350;2023-11-22T11:13:13;5.70;94.40
47779;DHT22;33538;48.432;11.350;2023-11-22T11:15:41;5.60;94.00
47779;DHT22;33538;48.432;11.350;2023-11-22T11:18:14;5.60;94.40
47779;DHT22;33538;48.432;11.350;2023-11-22T11:20:45;5.60;94.70
47779;DHT22;33538;48.432;11.350;2023-11-22T11:23:13;5.60;95.20
47779;DHT22;33538;48.432;11.350;2023-11-22T11:25:41;5.60;94.80
47779;DHT22;33538;48.432;11.350;2023-11-22T11:28:10;5.50;94.80
47779;DHT22;33538;48.432;11.350;2023-11-22T11:30:45;5.60;94.70
47779;DHT22;33538;48.432;11.350;2023-11-22T11:33:13;5.60;94.40
47779;DHT22;33538;48.432;11.350;2023-11-22T11:35:43;5.60;94.60
47779;DHT22;33538;48.432;11.350;2023-11-22T11:38:11;5.60;94.50
47779;DHT22;33538;48.432;11.350;2023-11-22T11:40:40;5.60;94.70
47779;DHT22;33538;48.432;11.350;2023-11-22T11:43:07;5.60;94.80
47779;DHT22;33538;48.432;11.350;2023-11-22T11:45:36;5.70;94.70
47779;DHT22;33538;48.432;11.350;2023-11-22T11:48:05;5.60;94.60
47779;DHT22;33538;48.432;11.350;2023-11-22T11:50:32;5.70;94.40
47779;DHT22;33538;48.432;11.350;2023-11-22T11:52:59;5.60;94.40
47779;DHT22;33538;48.432;11.350;2023-11-22T11:55:26;5.60;94.40
47779;DHT22;33538;48.432;11.350;2023-11-22T11:57:54;5.50;94.70
47779;DHT22;33538;48.432;11.350;2023-11-22T12:00:21;5.50;94.80
47779;DHT22;33538;48.432;11.350;2023-11-22T12:02:48;5.50;95.20
47779;DHT22;33538;48.432;11.350;2023-11-22T12:05:19;5.60;95.20
47779;DHT22;33538;48.432;11.350;2023-11-22T12:07:46;5.60;95.10
47779;DHT22;33538;48.432;11.350;2023-11-22T12:10:13;5.60;94.90
47779;DHT22;33538;48.432;11.350;2023-11-22T12:12:43;5.60;95.50
47779;DHT22;33538;48.432;11.350;2023-11-22T12:15:10;5.60;95.20
47779;DHT22;33538;48.432;11.350;2023-11-22T12:17:37;5.60;95.30
47779;DHT22;33538;48.432;11.350;2023-11-22T12:20:12;5.60;95.40
47779;DHT22;33538;48.432;11.350;2023-11-22T12:22:41;5.60;95.10
47779;DHT22;33538;48.432;11.350;2023-11-22T12:25:09;5.50;95.60
47779;DHT22;33538;48.432;11.350;2023-11-22T12:27:39;5.60;95.20
47779;DHT22;33538;48.432;11.350;2023-11-22T12:30:07;5.60;95.20
47779;DHT22;33538;48.432;11.350;2023-11-22T12:32:37;5.60;95.00
47779;DHT22;33538;48.432;11.350;2023-11-22T12:35:06;5.60;95.30
47779;DHT22;33538;48.432;11.350;2023-11-22T12:37:33;5.50;95.50
47779;DHT22;33538;48.432;11.350;2023-11-22T12:40:09;5.50;95.40
47779;DHT22;33538;48.432;11.350;2023-11-22T12:42:46;5.50;95.30
47779;DHT22;33538;48.432;11.350;2023-11-22T12:45:18;5.50;95.20
47779;DHT22;33538;48.432;11.350;2023-11-22T12:47:45;5.60;95.30
47779;DHT22;33538;48.432;11.350;2023-11-22T12:50:30;5.60;95.20
47779;DHT22;33538;48.432;11.350;2023-11-22T12:52:57;5.60;95.60
47779;DHT22;33538;48.432;11.350;2023-11-22T12:55:25;5.50;95.70
47779;DHT22;33538;48.432;11.350;2023-11-22T12:57:59;5.50;95.70
47779;DHT22;33538;48.432;11.350;2023-11-22T13:00:25;5.60;95.50
47779;DHT22;33538;48.432;11.350;2023-11-22T13:02:52;5.60;95.60
47779;DHT22;33538;48.432;11.350;2023-11-22T13:05:29;5.60;95.60
47779;DHT22;33538;48.432;11.350;2023-11-22T13:07:57;5.60;95.30
47779;DHT22;33538;48.432;11.350;2023-11-22T13:10:27;5.50;95.40
47779;DHT22;33538;48.432;11.350;2023-11-22T13:12:54;5.50;95.30
47779;DHT22;33538;48.432;11.350;2023-11-22T13:15:21;5.60;95.30
47779;DHT22;33538;48.432;11.350;2023-11-22T13:17:47;5.50;95.30
47779;DHT22;33538;48.432;11.350;2023-11-22T13:20:15;5.60;95.90
47779;DHT22;33538;48.432;11.350;2023-11-22T13:22:41;5.50;95.60
47779;DHT22;33538;48.432;11.350;2023-11-22T13:25:08;5.50;95.90
47779;DHT22;33538;48.432;11.350;2023-11-22T13:27:37;5.60;95.70
47779;DHT22;33538;48.432;11.350;2023-11-22T13:30:04;5.60;95.70
47779;DHT22;33538;48.432;11.350;2023-11-22T13:32:31;5.50;95.90
47779;DHT22;33538;48.432;11.350;2023-11-22T13:34:59;5.60;96.20
47779;DHT22;33538;48.432;11.350;2023-11-22T13:37:25;5.50;96.30
47779;DHT22;33538;48.432;11.350;2023-11-22T13:39:53;5.50;96.20
47779;DHT22;33538;48.432;11.350;2023-11-22T13:42:20;5.40;96.40
47779;DHT22;33538;48.432;11.350;2023-11-22T13:44:48;5.40;96.40
47779;DHT22;33538;48.432;11.350;2023-11-22T13:47:15;5.50;96.20
47779;DHT22;33538;48.432;11.350;2023-11-22T13:49:41;5.50;96.10
47779;DHT22;33538;48.432;11.350;2023-11-22T13:52:08;5.40;96.10
47779;DHT22;33538;48.432;11.350;2023-11-22T13:54:35;5.50;96.10
47779;DHT22;33538;48.432;11.350;2023-11-22T13:57:02;5.50;96.20
47779;DHT22;33538;48.432;11.350;2023-11-22T13:59:29;5.50;96.10
47779;DHT22;33538;48.432;11.350;2023-11-22T14:01:57;5.40;95.90
47779;DHT22;33538;48.432;11.350;2023-11-22T14:04:24;5.40;95.70
47779;DHT22;33538;48.432;11.350;2023-11-22T14:06:51;5.50;96.10
47779;DHT22;33538;48.432;11.350;2023-11-22T14:09:17;5.50;96.00
47779;DHT22;33538;48.432;11.350;2023-11-22T14:11:44;5.50;96.00
47779;DHT22;33538;48.432;11.350;2023-11-22T14:14:11;5.50;95.90
47779;DHT22;33538;48.432;11.350;2023-11-22T14:16:40;5.50;96.00
47779;DHT22;33538;48.432;11.350;2023-11-22T14:19:08;5.50;96.20
47779;DHT22;33538;48.432;11.350;2023-11-22T14:21:35;5.40;96.20
47779;DHT22;33538;48.432;11.350;2023-11-22T14:24:02;5.40;96.20
47779;DHT22;33538;48.432;11.350;2023-11-22T14:26:29;5.40;96.10
47779;DHT22;33538;48.432;11.350;2023-11-22T14:28:55;5.40;96.20
47779;DHT22;33538;48.432;11.350;2023-11-22T14:31:22;5.40;96.20
47779;DHT22;33538;48.432;11.350;2023-11-22T14:33:49;5.40;96.20
47779;DHT22;33538;48.432;11.350;2023-11-22T14:36:17;5.50;96.10
47779;DHT22;33538;48.432;11.350;2023-11-22T14:38:44;5.40;96.00
47779;DHT22;33538;48.432;11.350;2023-11-22T14:41:11;5.30;96.10
47779;DHT22;33538;48.432;11.350;2023-11-22T14:43:38;5.30;96.60
47779;DHT22;33538;48.432;11.350;2023-11-22T14:46:05;5.40;96.20
47779;DHT22;33538;48.432;11.350;2023-11-22T14:48:32;5.30;96.20
47779;DHT22;33538;48.432;11.350;2023-11-22T14:50:58;5.30;96.10
47779;DHT22;33538;48.432;11.350;2023-11-22T14:53:27;5.30;95.90
47779;DHT22;33538;48.432;11.350;2023-11-22T14:55:55;5.30;96.00
47779;DHT22;33538;48.432;11.350;2023-11-22T14:58:22;5.30;96.20
47779;DHT22;33538;48.432;11.350;2023-11-22T15:00:48;5.30;96.00
47779;DHT22;33538;48.432;11.350;2023-11-22T15:03:15;5.30;95.90
47779;DHT22;33538;48.432;11.350;2023-11-22T15:05:42;5.30;96.20
47779;DHT22;33538;48.432;11.350;2023-11-22T15:08:09;5.30;96.10
47779;DHT22;33538;48.432;11.350;2023-11-22T15:10:37;5.30;96.00
47779;DHT22;33538;48.432;11.350;2023-11-22T15:13:04;5.30;96.20
47779;DHT22;33538;48.432;11.350;2023-11-22T15:15:31;5.30;96.00
47779;DHT22;33538;48.432;11.350;2023-11-22T15:17:58;5.30;96.30
47779;DHT22;33538;48.432;11.350;2023-11-22T15:20:24;5.20;96.50
47779;DHT22;33538;48.432;11.350;2023-11-22T15:22:51;5.30;96.00
47779;DHT22;33538;48.432;11.350;2023-11-22T15:25:18;5.30;96.10
47779;DHT22;33538;48.432;11.350;2023-11-22T15:27:47;5.20;96.10
47779;DHT22;33538;48.432;11.350;2023-11-22T15:30:13;5.20;96.10
47779;DHT22;33538;48.432;11.350;2023-11-22T15:32:40;5.20;96.20